Time;durP1;ratioP1;P1;durP2;ratioP2;P2;SDS_P1;SDS_P2;PMS_P1;PMS_P2;Temp;Humidity;BMP_temperature;BMP_pressure;BME280_temperature;BME280_humidity;BME280_pressure;Samples;Min_cycle;Max_cycle;Signal;HPM_P1;HPM_P2
2021/12/01 00:00:47;;;;;;;15.50;9.95;;;;;;;;;;5039187;28;20209;-61
2021/12/01 00:03:14;;;;;;;18.95;10.73;;;;;;;;;;5042339;28;20196;-67
2021/12/01 00:05:43;;;;;;;17.70;10.27;;;;;;;;;;5050150;28;20224;-67
2021/12/01 00:08:10;;;;;;;21.10;11.05;;;;;;;;;;5049539;28;20228;-66
2021/12/01 00:10:37;;;;;;;19.92;10.82;;;;;;;;;;5050010;28;20196;-63
2021/12/01 00:13:05;;;;;;;20.70;11.15;;;;;;;;;;5052368;28;20290;-63
2021/12/01 00:15:32;;;;;;;16.67;11.15;;;;;;;;;;5059597;28;20194;-60
2021/12/01 00:17:59;;;;;;;20.42;11.15;;;;;;;;;;5047603;28;20269;-66
2021/12/01 00:20:28;;;;;;;19.70;10.38;;;;;;;;;;5042797;28;20196;-65
2021/12/01 00:22:55;;;;;;;17.15;10.52;;;;;;;;;;5037442;28;20962;-64
2021/12/01 00:25:25;;;;;;;20.60;11.65;;;;;;;;;;5039955;28;20188;-63
2021/12/01 00:27:52;;;;;;;20.70;12.05;;;;;;;;;;5040920;28;20188;-66
2021/12/01 00:30:20;;;;;;;18.63;10.68;;;;;;;;;;5038686;28;20201;-67
2021/12/01 00:32:47;;;;;;;18.45;10.38;;;;;;;;;;5040266;28;20188;-66
2021/12/01 00:35:13;;;;;;;21.15;11.23;;;;;;;;;;5049530;28;20196;-64
2021/12/01 00:37:41;;;;;;;21.25;11.20;;;;;;;;;;5048344;28;20208;-66
2021/12/01 00:40:09;;;;;;;22.80;11.00;;;;;;;;;;5049389;28;20189;-66
2021/12/01 00:42:36;;;;;;;17.17;10.60;;;;;;;;;;5048011;28;20251;-66
2021/12/01 00:45:11;;;;;;;18.33;10.98;;;;;;;;;;5048582;28;20195;-66
2021/12/01 00:47:47;;;;;;;19.50;11.02;;;;;;;;;;5040110;28;20205;-66
2021/12/01 00:50:15;;;;;;;15.88;9.63;;;;;;;;;;5040045;28;20726;-66
2021/12/01 00:52:42;;;;;;;15.30;10.15;;;;;;;;;;5035367;28;20204;-67
2021/12/01 00:55:09;;;;;;;19.67;10.50;;;;;;;;;;5038708;28;20580;-64
2021/12/01 00:57:36;;;;;;;16.73;9.70;;;;;;;;;;5040456;28;20188;-67
2021/12/01 01:00:04;;;;;;;16.13;9.50;;;;;;;;;;5036935;28;20289;-68
2021/12/01 01:02:31;;;;;;;15.10;8.77;;;;;;;;;;5028324;28;20235;-65
2021/12/01 01:04:58;;;;;;;18.60;9.90;;;;;;;;;;5035752;28;20196;-62
2021/12/01 01:07:25;;;;;;;18.92;10.85;;;;;;;;;;5038576;28;20243;-64
2021/12/01 01:09:52;;;;;;;16.35;8.93;;;;;;;;;;5039333;28;20196;-65
2021/12/01 01:18:07;;;;;;;16.40;8.95;;;;;;;;;;5041023;28;20877;-66
2021/12/01 01:20:35;;;;;;;13.45;8.30;;;;;;;;;;5043766;28;20694;-64
2021/12/01 01:23:02;;;;;;;18.23;9.18;;;;;;;;;;5043370;28;20209;-65
2021/12/01 01:25:29;;;;;;;17.35;9.80;;;;;;;;;;5044569;28;20235;-64
2021/12/01 01:27:56;;;;;;;16.10;9.65;;;;;;;;;;5052296;28;20177;-65
2021/12/01 01:30:23;;;;;;;17.50;10.15;;;;;;;;;;5056941;28;20188;-66
2021/12/01 01:32:51;;;;;;;17.23;9.75;;;;;;;;;;5060119;28;20200;-62
2021/12/01 01:35:18;;;;;;;14.07;8.93;;;;;;;;;;5052326;28;20197;-62
2021/12/01 01:37:46;;;;;;;16.38;9.48;;;;;;;;;;5052052;28;20216;-62
2021/12/01 01:40:13;;;;;;;16.58;9.45;;;;;;;;;;5052072;28;20261;-63
2021/12/01 01:42:40;;;;;;;17.95;11.00;;;;;;;;;;5041610;28;20212;-64
2021/12/01 01:45:07;;;;;;;18.63;10.15;;;;;;;;;;5039927;28;20195;-65
2021/12/01 01:47:35;;;;;;;19.58;10.00;;;;;;;;;;5040975;28;20211;-63
2021/12/01 01:52:34;;;;;;;14.73;9.15;;;;;;;;;;5037349;28;20303;-64
2021/12/01 01:55:01;;;;;;;12.85;8.02;;;;;;;;;;5040886;28;20208;-63
2021/12/01 01:57:27;;;;;;;12.48;7.00;;;;;;;;;;5042193;28;20324;-64
2021/12/01 01:59:54;;;;;;;12.27;7.75;;;;;;;;;;5042985;28;20203;-63
2021/12/01 02:02:21;;;;;;;15.52;7.60;;;;;;;;;;5043138;28;20721;-66
2021/12/01 02:04:48;;;;;;;12.98;7.43;;;;;;;;;;5051701;28;20196;-63
2021/12/01 02:07:15;;;;;;;11.50;7.10;;;;;;;;;;5051298;28;20327;-64
2021/12/01 02:09:43;;;;;;;10.07;7.10;;;;;;;;;;5052022;28;20248;-63
2021/12/01 02:12:09;;;;;;;10.90;7.00;;;;;;;;;;5051938;28;20955;-63
2021/12/01 02:14:36;;;;;;;12.13;6.90;;;;;;;;;;5049936;28;20205;-64
2021/12/01 02:17:03;;;;;;;12.07;7.32;;;;;;;;;;5051832;28;20207;-66
2021/12/01 02:19:30;;;;;;;16.25;7.03;;;;;;;;;;5043515;28;20192;-65
2021/12/01 02:21:57;;;;;;;13.63;7.88;;;;;;;;;;5039532;28;20216;-64
2021/12/01 02:24:25;;;;;;;11.93;7.30;;;;;;;;;;5040290;28;20200;-63
2021/12/01 02:26:52;;;;;;;12.65;7.63;;;;;;;;;;5049452;28;20208;-64
2021/12/01 02:29:20;;;;;;;12.48;7.57;;;;;;;;;;5052050;28;20191;-63
2021/12/01 02:31:49;;;;;;;13.82;7.72;;;;;;;;;;5039116;28;20208;-63
2021/12/01 02:34:19;;;;;;;19.77;7.60;;;;;;;;;;5040135;28;20193;-63
2021/12/01 02:36:50;;;;;;;15.25;7.65;;;;;;;;;;5046663;28;20200;-63
2021/12/01 02:39:18;;;;;;;12.25;7.00;;;;;;;;;;5049885;28;20238;-64
2021/12/01 02:41:45;;;;;;;12.98;7.28;;;;;;;;;;5051301;28;20216;-63
2021/12/01 02:44:15;;;;;;;12.13;7.13;;;;;;;;;;5050924;28;20291;-63
2021/12/01 02:46:43;;;;;;;14.00;7.38;;;;;;;;;;5050188;28;20208;-65
2021/12/01 02:49:10;;;;;;;14.05;7.00;;;;;;;;;;5044906;28;20200;-62
2021/12/01 02:51:38;;;;;;;16.88;7.88;;;;;;;;;;5036620;28;20278;-63
2021/12/01 02:54:05;;;;;;;10.77;6.75;;;;;;;;;;5041214;28;20188;-65
2021/12/01 02:56:33;;;;;;;11.05;6.88;;;;;;;;;;5041717;28;20700;-62
2021/12/01 02:59:01;;;;;;;12.02;6.57;;;;;;;;;;5035013;28;20511;-64
2021/12/01 03:01:28;;;;;;;11.07;6.68;;;;;;;;;;5044695;28;20197;-63
2021/12/01 03:03:58;;;;;;;14.10;7.10;;;;;;;;;;5050049;28;20214;-68
2021/12/01 03:06:26;;;;;;;11.63;7.15;;;;;;;;;;5050806;28;20206;-64
2021/12/01 03:08:54;;;;;;;11.05;6.22;;;;;;;;;;5049938;28;20232;-65
2021/12/01 03:11:21;;;;;;;10.13;6.88;;;;;;;;;;5050787;28;20213;-63
2021/12/01 03:13:47;;;;;;;12.32;7.00;;;;;;;;;;5050918;28;20189;-65
2021/12/01 03:16:15;;;;;;;14.20;6.97;;;;;;;;;;5039845;28;20193;-66
2021/12/01 03:18:44;;;;;;;11.93;7.45;;;;;;;;;;5034189;28;20286;-65
2021/12/01 03:21:11;;;;;;;11.85;7.32;;;;;;;;;;5040240;28;20197;-66
2021/12/01 03:23:39;;;;;;;9.88;6.90;;;;;;;;;;5038874;28;20593;-65
2021/12/01 03:26:06;;;;;;;13.02;7.22;;;;;;;;;;5041803;28;20227;-63
2021/12/01 03:28:33;;;;;;;12.32;6.68;;;;;;;;;;5041580;28;20586;-62
2021/12/01 03:31:00;;;;;;;11.13;6.75;;;;;;;;;;5041317;28;20224;-63
2021/12/01 03:33:27;;;;;;;10.02;6.07;;;;;;;;;;5054134;28;20204;-63
2021/12/01 03:35:54;;;;;;;13.05;6.88;;;;;;;;;;5049940;28;20552;-64
2021/12/01 03:38:23;;;;;;;10.00;6.40;;;;;;;;;;5049441;28;20251;-64
2021/12/01 03:40:50;;;;;;;10.52;6.18;;;;;;;;;;5050087;28;20197;-66
2021/12/01 03:43:18;;;;;;;11.07;6.20;;;;;;;;;;5049573;28;20224;-65
2021/12/01 03:45:45;;;;;;;8.73;6.00;;;;;;;;;;5038357;28;20193;-64
2021/12/01 03:48:13;;;;;;;11.43;7.35;;;;;;;;;;5038400;28;20311;-63
2021/12/01 03:50:41;;;;;;;11.95;6.90;;;;;;;;;;5033273;28;20197;-66
2021/12/01 03:53:08;;;;;;;14.20;7.80;;;;;;;;;;5054047;28;20199;-65
2021/12/01 03:55:35;;;;;;;12.30;6.13;;;;;;;;;;5040163;28;20196;-64
2021/12/01 03:58:05;;;;;;;9.00;5.95;;;;;;;;;;5040359;28;20679;-64
2021/12/01 04:00:32;;;;;;;12.27;5.75;;;;;;;;;;5041151;28;20558;-64
2021/12/01 04:02:58;;;;;;;11.73;6.28;;;;;;;;;;5041863;28;20215;-64
2021/12/01 04:05:26;;;;;;;9.98;6.47;;;;;;;;;;5049484;28;20566;-63
2021/12/01 04:07:53;;;;;;;10.73;6.07;;;;;;;;;;5049382;28;20231;-65
2021/12/01 04:10:20;;;;;;;8.68;5.72;;;;;;;;;;5050007;28;20191;-66
2021/12/01 04:12:48;;;;;;;11.80;6.20;;;;;;;;;;5049402;28;20204;-63
2021/12/01 04:15:16;;;;;;;12.13;6.78;;;;;;;;;;5041093;28;20189;-66
2021/12/01 04:17:43;;;;;;;9.05;6.53;;;;;;;;;;5037490;28;20208;-63
2021/12/01 04:20:15;;;;;;;11.00;7.18;;;;;;;;;;5040467;28;20920;-66
2021/12/01 04:22:43;;;;;;;9.48;6.10;;;;;;;;;;5040389;28;20219;-66
2021/12/01 04:25:11;;;;;;;11.50;6.65;;;;;;;;;;5033535;28;20202;-63
2021/12/01 04:27:38;;;;;;;8.15;5.70;;;;;;;;;;5049729;28;20200;-68
2021/12/01 04:30:07;;;;;;;10.10;5.65;;;;;;;;;;5049188;28;20181;-66
2021/12/01 04:32:34;;;;;;;11.45;5.63;;;;;;;;;;5046410;28;20223;-62
2021/12/01 04:35:01;;;;;;;9.80;5.82;;;;;;;;;;5048909;28;20195;-68
2021/12/01 04:37:28;;;;;;;14.18;6.70;;;;;;;;;;5048876;28;20258;-67
2021/12/01 04:39:55;;;;;;;12.90;6.05;;;;;;;;;;5049333;28;20186;-65
2021/12/01 04:42:22;;;;;;;11.65;6.53;;;;;;;;;;5048870;28;20303;-66
2021/12/01 04:44:49;;;;;;;12.23;6.05;;;;;;;;;;5048925;28;20569;-61
2021/12/01 04:47:18;;;;;;;10.48;6.43;;;;;;;;;;5037967;28;20192;-66
2021/12/01 04:49:45;;;;;;;10.73;6.32;;;;;;;;;;5039212;28;20652;-66
2021/12/01 04:52:12;;;;;;;11.40;6.50;;;;;;;;;;5047232;28;20204;-65
2021/12/01 04:54:39;;;;;;;11.50;6.90;;;;;;;;;;5043961;28;20675;-68
2021/12/01 04:57:06;;;;;;;11.73;7.30;;;;;;;;;;5037144;28;20196;-63
2021/12/01 04:59:33;;;;;;;13.43;8.15;;;;;;;;;;5037360;28;20537;-71
2021/12/01 05:02:01;;;;;;;12.65;8.15;;;;;;;;;;5027040;28;20193;-65
2021/12/01 05:04:28;;;;;;;15.35;8.30;;;;;;;;;;5024960;28;20953;-68
2021/12/01 05:06:55;;;;;;;12.30;8.20;;;;;;;;;;5047416;28;20192;-66
2021/12/01 05:09:22;;;;;;;11.57;8.30;;;;;;;;;;5049330;28;20188;-65
2021/12/01 05:11:49;;;;;;;16.85;7.75;;;;;;;;;;5047757;28;20199;-62
2021/12/01 05:14:16;;;;;;;12.40;8.15;;;;;;;;;;5048763;28;20197;-67
2021/12/01 05:16:43;;;;;;;13.85;7.53;;;;;;;;;;5049004;28;20315;-63
2021/12/01 05:19:10;;;;;;;14.55;8.93;;;;;;;;;;5048611;28;20271;-64
2021/12/01 05:21:38;;;;;;;14.57;8.30;;;;;;;;;;5048910;28;20547;-67
2021/12/01 05:24:05;;;;;;;13.15;8.18;;;;;;;;;;5041804;28;20250;-67
2021/12/01 05:26:34;;;;;;;15.70;8.50;;;;;;;;;;5029065;28;20747;-63
2021/12/01 05:29:02;;;;;;;13.93;8.70;;;;;;;;;;5028664;28;20617;-66
2021/12/01 05:31:28;;;;;;;15.10;9.70;;;;;;;;;;5029526;28;20211;-62
2021/12/01 05:33:55;;;;;;;15.25;8.98;;;;;;;;;;5028779;28;20284;-67
2021/12/01 05:36:22;;;;;;;15.02;8.40;;;;;;;;;;5028989;28;20193;-63
2021/12/01 05:38:50;;;;;;;15.98;8.75;;;;;;;;;;5028988;28;20584;-65
2021/12/01 05:41:16;;;;;;;20.35;9.52;;;;;;;;;;5029417;28;20197;-73
2021/12/01 05:43:43;;;;;;;16.67;9.48;;;;;;;;;;5028941;28;20240;-65
2021/12/01 05:46:10;;;;;;;18.17;9.63;;;;;;;;;;5028412;28;20197;-65
2021/12/01 05:48:37;;;;;;;15.75;9.00;;;;;;;;;;5029968;28;20201;-65
2021/12/01 05:51:04;;;;;;;15.30;8.68;;;;;;;;;;5030945;28;20711;-64
2021/12/01 05:53:31;;;;;;;13.60;8.18;;;;;;;;;;5033211;28;20240;-66
2021/12/01 05:55:58;;;;;;;12.77;7.60;;;;;;;;;;5031813;28;20201;-61
2021/12/01 05:58:25;;;;;;;12.43;7.55;;;;;;;;;;5039026;28;20212;-64
2021/12/01 06:00:52;;;;;;;14.48;8.40;;;;;;;;;;5038570;28;20201;-62
2021/12/01 06:03:18;;;;;;;22.08;12.00;;;;;;;;;;5038549;28;20580;-64
2021/12/01 06:05:46;;;;;;;110.22;58.50;;;;;;;;;;5032467;28;20637;-67
2021/12/01 06:08:13;;;;;;;14.20;8.38;;;;;;;;;;5032014;28;20225;-65
2021/12/01 06:10:41;;;;;;;17.58;9.13;;;;;;;;;;5032467;28;20205;-67
2021/12/01 06:13:08;;;;;;;16.60;9.88;;;;;;;;;;5031938;28;20251;-64
2021/12/01 06:15:35;;;;;;;15.15;8.98;;;;;;;;;;5031948;28;20287;-64
2021/12/01 06:18:02;;;;;;;32.28;18.95;;;;;;;;;;5032033;28;20190;-67
2021/12/01 06:20:29;;;;;;;92.25;51.42;;;;;;;;;;5032178;28;20202;-62
2021/12/01 06:22:56;;;;;;;394.27;250.48;;;;;;;;;;5030828;28;20221;-65
2021/12/01 06:25:23;;;;;;;18.98;11.48;;;;;;;;;;5031792;28;20208;-67
2021/12/01 06:27:52;;;;;;;17.65;11.02;;;;;;;;;;5031842;28;20186;-65
2021/12/01 06:30:21;;;;;;;18.55;11.25;;;;;;;;;;5029907;28;20200;-66
2021/12/01 06:32:48;;;;;;;19.70;11.75;;;;;;;;;;5028638;28;20953;-69
2021/12/01 06:35:15;;;;;;;19.85;11.68;;;;;;;;;;5028834;28;20194;-65
2021/12/01 06:37:42;;;;;;;20.63;12.68;;;;;;;;;;5029362;28;20215;-66
2021/12/01 06:40:09;;;;;;;33.33;18.45;;;;;;;;;;5030085;28;20256;-64
2021/12/01 06:42:36;;;;;;;30.05;16.50;;;;;;;;;;5030460;28;20593;-69
2021/12/01 06:45:04;;;;;;;26.80;14.38;;;;;;;;;;5030776;28;20208;-68
2021/12/01 06:47:31;;;;;;;24.30;14.43;;;;;;;;;;5031261;28;20259;-68
2021/12/01 06:49:59;;;;;;;21.08;11.90;;;;;;;;;;5031478;28;20212;-67
2021/12/01 06:52:29;;;;;;;20.65;12.95;;;;;;;;;;5031435;28;20189;-68
2021/12/01 06:54:57;;;;;;;25.08;14.38;;;;;;;;;;5031321;28;21072;-64
2021/12/01 06:57:24;;;;;;;42.50;23.38;;;;;;;;;;5030819;28;20609;-63
2021/12/01 06:59:52;;;;;;;21.73;13.40;;;;;;;;;;5031138;28;20205;-65
2021/12/01 07:02:19;;;;;;;58.25;34.03;;;;;;;;;;5030824;28;20205;-69
2021/12/01 07:04:46;;;;;;;37.50;16.13;;;;;;;;;;5031381;28;20201;-67
2021/12/01 07:07:12;;;;;;;47.55;24.10;;;;;;;;;;5030747;28;20233;-70
2021/12/01 07:09:40;;;;;;;26.58;15.88;;;;;;;;;;5030288;28;20205;-64
2021/12/01 07:12:07;;;;;;;25.42;14.68;;;;;;;;;;5030816;28;20198;-63
2021/12/01 07:14:34;;;;;;;24.30;14.23;;;;;;;;;;5030748;28;20239;-66
2021/12/01 07:17:02;;;;;;;23.20;13.35;;;;;;;;;;5030691;28;20197;-71
2021/12/01 07:19:29;;;;;;;21.50;12.75;;;;;;;;;;5031107;28;20182;-70
2021/12/01 07:21:56;;;;;;;21.42;12.80;;;;;;;;;;5031068;28;20276;-69
2021/12/01 07:24:22;;;;;;;20.30;11.35;;;;;;;;;;5030699;28;20704;-68
2021/12/01 07:26:49;;;;;;;18.48;10.85;;;;;;;;;;5030698;28;20217;-71
2021/12/01 07:29:17;;;;;;;15.27;9.32;;;;;;;;;;5031088;28;20181;-64
2021/12/01 07:31:44;;;;;;;16.65;8.60;;;;;;;;;;5030740;28;20215;-64
2021/12/01 07:34:11;;;;;;;13.95;8.88;;;;;;;;;;5031266;28;20208;-71
2021/12/01 07:36:38;;;;;;;13.63;7.68;;;;;;;;;;5031418;28;20193;-64
2021/12/01 07:39:05;;;;;;;13.75;8.52;;;;;;;;;;5030763;28;20193;-73
2021/12/01 07:41:31;;;;;;;15.30;9.23;;;;;;;;;;5030992;28;20200;-71
2021/12/01 07:43:58;;;;;;;12.55;8.00;;;;;;;;;;5034383;28;20236;-69
2021/12/01 07:46:25;;;;;;;14.57;8.90;;;;;;;;;;5036735;28;20205;-67
2021/12/01 07:48:52;;;;;;;15.57;8.25;;;;;;;;;;5030695;28;20189;-72
2021/12/01 07:51:19;;;;;;;16.17;7.85;;;;;;;;;;5030759;28;20662;-75
2021/12/01 07:53:45;;;;;;;17.00;8.75;;;;;;;;;;5030292;28;20197;-69
2021/12/01 07:56:12;;;;;;;18.02;10.20;;;;;;;;;;5030554;28;20193;-70
2021/12/01 07:58:39;;;;;;;13.32;9.13;;;;;;;;;;5030430;28;20181;-63
2021/12/01 08:01:06;;;;;;;16.45;8.80;;;;;;;;;;5030460;28;20640;-72
2021/12/01 08:03:33;;;;;;;13.50;9.05;;;;;;;;;;5029840;28;20213;-65
2021/12/01 08:06:00;;;;;;;15.05;8.77;;;;;;;;;;5030264;28;20209;-68
2021/12/01 08:08:27;;;;;;;11.52;7.85;;;;;;;;;;5029788;28;20722;-67
2021/12/01 08:10:54;;;;;;;13.82;7.82;;;;;;;;;;5030731;28;20201;-70
2021/12/01 08:13:21;;;;;;;13.93;7.88;;;;;;;;;;5030062;28;20237;-72
2021/12/01 08:15:49;;;;;;;15.25;7.95;;;;;;;;;;5030007;28;20703;-65
2021/12/01 08:18:16;;;;;;;12.25;8.45;;;;;;;;;;5029894;28;20201;-68
2021/12/01 08:20:43;;;;;;;15.07;7.88;;;;;;;;;;5030672;28;20215;-63
2021/12/01 08:23:10;;;;;;;12.60;8.25;;;;;;;;;;5029842;28;20228;-69
2021/12/01 08:25:37;;;;;;;17.15;9.30;;;;;;;;;;5029692;28;20197;-67
2021/12/01 08:28:04;;;;;;;15.75;8.85;;;;;;;;;;5029598;28;20212;-66
2021/12/01 08:30:31;;;;;;;12.60;8.57;;;;;;;;;;5030000;28;20209;-67
2021/12/01 08:32:58;;;;;;;15.20;8.85;;;;;;;;;;5029569;28;20246;-64
2021/12/01 08:35:25;;;;;;;14.02;8.90;;;;;;;;;;5029672;28;20212;-67
2021/12/01 08:37:52;;;;;;;11.70;7.70;;;;;;;;;;5029751;28;20204;-66
2021/12/01 08:40:19;;;;;;;16.50;9.00;;;;;;;;;;5030257;28;20927;-70
2021/12/01 08:42:46;;;;;;;13.27;8.98;;;;;;;;;;5029963;28;20581;-71
2021/12/01 08:45:13;;;;;;;15.80;9.18;;;;;;;;;;5029667;28;20304;-66
2021/12/01 08:47:40;;;;;;;14.48;8.77;;;;;;;;;;5028965;28;20292;-70
2021/12/01 08:50:08;;;;;;;15.30;9.98;;;;;;;;;;5029751;28;20181;-65
2021/12/01 08:52:35;;;;;;;15.55;9.70;;;;;;;;;;5029172;28;20762;-65
2021/12/01 08:55:02;;;;;;;15.05;9.25;;;;;;;;;;5029383;28;20197;-68
2021/12/01 08:57:29;;;;;;;17.58;10.20;;;;;;;;;;5028964;28;20190;-67
2021/12/01 08:59:56;;;;;;;18.15;9.63;;;;;;;;;;5029703;28;20205;-66
2021/12/01 09:02:23;;;;;;;19.30;10.18;;;;;;;;;;5029307;28;20196;-63
2021/12/01 09:04:50;;;;;;;13.57;9.02;;;;;;;;;;5029507;28;20232;-69
2021/12/01 09:07:18;;;;;;;17.52;10.48;;;;;;;;;;5028660;28;20291;-71
2021/12/01 09:09:45;;;;;;;15.95;10.00;;;;;;;;;;5029067;28;20208;-68
2021/12/01 09:12:13;;;;;;;19.20;10.37;;;;;;;;;;5029178;28;20236;-67
2021/12/01 09:14:41;;;;;;;16.83;10.47;;;;;;;;;;5029351;28;20429;-69
2021/12/01 09:17:09;;;;;;;20.52;11.65;;;;;;;;;;5028754;28;21302;-72
2021/12/01 09:19:36;;;;;;;20.40;12.30;;;;;;;;;;5029271;28;20197;-65
2021/12/01 09:22:03;;;;;;;25.40;13.60;;;;;;;;;;5044132;28;20458;-66
2021/12/01 09:24:30;;;;;;;24.85;13.60;;;;;;;;;;5029290;28;20478;-75
2021/12/01 09:26:57;;;;;;;20.95;10.90;;;;;;;;;;5029075;28;20194;-76
2021/12/01 09:29:27;;;;;;;17.17;10.43;;;;;;;;;;5029128;28;20680;-69
2021/12/01 09:31:54;;;;;;;17.35;9.95;;;;;;;;;;5030675;28;20588;-68
2021/12/01 09:34:21;;;;;;;22.08;11.30;;;;;;;;;;5033427;28;20577;-67
2021/12/01 09:36:48;;;;;;;19.93;9.80;;;;;;;;;;5047826;28;20300;-62
2021/12/01 09:39:15;;;;;;;16.80;8.93;;;;;;;;;;5032980;28;20535;-72
2021/12/01 09:41:43;;;;;;;15.80;8.50;;;;;;;;;;5033133;28;20807;-67
2021/12/01 09:44:10;;;;;;;15.20;9.43;;;;;;;;;;5032702;28;20479;-64
2021/12/01 09:46:36;;;;;;;14.90;9.40;;;;;;;;;;5032777;28;20428;-69
2021/12/01 09:49:03;;;;;;;15.57;8.97;;;;;;;;;;5032481;28;20769;-67
2021/12/01 09:51:30;;;;;;;20.07;9.83;;;;;;;;;;5033142;28;20953;-73
2021/12/01 09:53:57;;;;;;;16.67;10.00;;;;;;;;;;5032430;28;20954;-67
2021/12/01 09:56:25;;;;;;;15.87;10.00;;;;;;;;;;5032584;28;20435;-63
2021/12/01 09:58:52;;;;;;;15.07;10.10;;;;;;;;;;5032205;28;20826;-65
2021/12/01 10:01:20;;;;;;;16.67;10.20;;;;;;;;;;5032900;28;20531;-69
2021/12/01 10:03:47;;;;;;;17.37;11.43;;;;;;;;;;5032449;28;20463;-64
2021/12/01 10:06:17;;;;;;;20.13;12.10;;;;;;;;;;5032740;28;20880;-65
2021/12/01 10:09:03;;;;;;;19.73;11.70;;;;;;;;;;5032065;28;20915;-69
2021/12/01 10:11:32;;;;;;;17.70;10.73;;;;;;;;;;5032693;28;20450;-64
2021/12/01 10:14:06;;;;;;;21.60;11.50;;;;;;;;;;5032035;28;20451;-68
2021/12/01 10:16:34;;;;;;;20.57;11.93;;;;;;;;;;5032398;28;20467;-72
2021/12/01 10:19:03;;;;;;;17.27;10.93;;;;;;;;;;5031962;28;20435;-70
2021/12/01 10:21:34;;;;;;;18.50;11.00;;;;;;;;;;5032557;28;20476;-64
2021/12/01 10:24:09;;;;;;;14.93;8.93;;;;;;;;;;5031851;28;20488;-69
2021/12/01 10:26:50;;;;;;;20.33;10.97;;;;;;;;;;5032076;28;20446;-66
2021/12/01 10:29:20;;;;;;;15.70;11.50;;;;;;;;;;5032302;28;20447;-64
2021/12/01 10:31:51;;;;;;;17.90;12.13;;;;;;;;;;5032104;28;20450;-74
2021/12/01 10:34:21;;;;;;;20.77;12.47;;;;;;;;;;5031838;28;20878;-65
2021/12/01 10:36:49;;;;;;;23.60;13.60;;;;;;;;;;5031392;28;20440;-70
2021/12/01 10:39:17;;;;;;;18.83;12.67;;;;;;;;;;5032544;28;20451;-74
2021/12/01 10:41:43;;;;;;;19.87;12.50;;;;;;;;;;5031942;28;20460;-71
2021/12/01 10:44:12;;;;;;;16.97;11.07;;;;;;;;;;5030472;28;21033;-65
2021/12/01 10:46:43;;;;;;;32.57;12.87;;;;;;;;;;5032696;28;20479;-69
2021/12/01 10:49:10;;;;;;;18.13;11.17;;;;;;;;;;5032090;28;20997;-70
2021/12/01 10:51:38;;;;;;;17.90;10.47;;;;;;;;;;5047440;28;20454;-70
2021/12/01 10:54:13;;;;;;;15.60;9.63;;;;;;;;;;5031930;28;20452;-66
2021/12/01 10:56:40;;;;;;;17.20;9.50;;;;;;;;;;5031755;28;21003;-71
2021/12/01 10:59:14;;;;;;;13.90;9.37;;;;;;;;;;5031845;28;20868;-70
2021/12/01 11:01:45;;;;;;;10.93;8.10;;;;;;;;;;5031831;28;20451;-67
2021/12/01 11:04:12;;;;;;;14.13;9.40;;;;;;;;;;5031834;28;20503;-68
2021/12/01 11:06:41;;;;;;;18.10;9.97;;;;;;;;;;5031734;28;20428;-70
2021/12/01 11:09:08;;;;;;;13.67;9.20;;;;;;;;;;5031256;28;20487;-68
2021/12/01 11:11:38;;;;;;;17.43;10.00;;;;;;;;;;5031726;28;20813;-67
2021/12/01 11:14:25;;;;;;;18.33;10.60;;;;;;;;;;5031074;28;20442;-68
2021/12/01 11:16:52;;;;;;;16.33;10.87;;;;;;;;;;5031001;28;20428;-70
2021/12/01 11:19:30;;;;;;;22.27;11.73;;;;;;;;;;5031360;28;20436;-64
2021/12/01 11:22:17;;;;;;;17.10;11.70;;;;;;;;;;5030291;28;20434;-67
2021/12/01 11:24:44;;;;;;;15.67;10.43;;;;;;;;;;5031345;28;20533;-70
2021/12/01 11:27:11;;;;;;;18.90;9.80;;;;;;;;;;5031098;28;20447;-68
2021/12/01 11:29:53;;;;;;;15.57;9.53;;;;;;;;;;5030781;28;20904;-70
2021/12/01 11:32:20;;;;;;;15.33;10.20;;;;;;;;;;5030361;28;20428;-69
2021/12/01 11:34:48;;;;;;;19.27;11.03;;;;;;;;;;5030936;28;20444;-70
2021/12/01 11:37:16;;;;;;;15.90;9.73;;;;;;;;;;5030173;28;20448;-66
2021/12/01 11:39:43;;;;;;;16.03;10.27;;;;;;;;;;5030887;28;20983;-66
2021/12/01 11:42:10;;;;;;;15.63;9.30;;;;;;;;;;5030564;28;20451;-68
2021/12/01 11:44:37;;;;;;;17.13;9.70;;;;;;;;;;5030954;28;20486;-67
2021/12/01 11:47:04;;;;;;;27.73;15.87;;;;;;;;;;5030689;28;20448;-66
2021/12/01 11:49:33;;;;;;;16.30;10.80;;;;;;;;;;5030704;28;20440;-69
2021/12/01 11:52:04;;;;;;;18.80;10.60;;;;;;;;;;5030714;28;20448;-66
2021/12/01 11:54:34;;;;;;;15.57;9.57;;;;;;;;;;5030308;28;20450;-69
2021/12/01 11:57:03;;;;;;;14.50;9.40;;;;;;;;;;5029939;28;20440;-70
2021/12/01 11:59:32;;;;;;;13.70;9.30;;;;;;;;;;5030253;28;20452;-68
2021/12/01 12:02:00;;;;;;;13.07;8.83;;;;;;;;;;5030049;28;20443;-65
2021/12/01 12:04:28;;;;;;;15.33;8.57;;;;;;;;;;5030407;28;20910;-69
2021/12/01 12:07:03;;;;;;;13.57;7.97;;;;;;;;;;5029515;28;20549;-67
2021/12/01 12:10:06;;;;;;;13.97;9.27;;;;;;;;;;5030599;28;20501;-63
2021/12/01 12:12:44;;;;;;;13.50;8.60;;;;;;;;;;5029742;28;20520;-67
2021/12/01 12:15:11;;;;;;;12.53;8.43;;;;;;;;;;5030507;28;20841;-66
2021/12/01 12:17:40;;;;;;;10.67;7.80;;;;;;;;;;5029455;28;20443;-64
2021/12/01 12:20:21;;;;;;;15.37;7.13;;;;;;;;;;5030011;28;20448;-66
2021/12/01 12:22:48;;;;;;;10.33;6.83;;;;;;;;;;5030141;28;20736;-67
2021/12/01 12:25:34;;;;;;;9.03;6.20;;;;;;;;;;5029993;28;20711;-69
2021/12/01 12:28:17;;;;;;;7.87;5.37;;;;;;;;;;5029923;28;20195;-69
2021/12/01 12:30:45;;;;;;;11.57;6.30;;;;;;;;;;5029529;28;20201;-67
2021/12/01 12:33:17;;;;;;;8.60;6.03;;;;;;;;;;5029922;28;20204;-69
2021/12/01 12:35:46;;;;;;;11.40;6.23;;;;;;;;;;5029906;28;20221;-64
2021/12/01 12:38:14;;;;;;;10.57;6.80;;;;;;;;;;5029700;28;20201;-65
2021/12/01 12:40:41;;;;;;;9.83;6.20;;;;;;;;;;5029885;28;20822;-70
2021/12/01 12:43:10;;;;;;;16.17;9.10;;;;;;;;;;5029641;28;20204;-65
2021/12/01 12:45:38;;;;;;;9.00;6.53;;;;;;;;;;5030057;28;20498;-66
2021/12/01 12:48:25;;;;;;;9.33;5.90;;;;;;;;;;5029624;28;20436;-67
2021/12/01 12:51:07;;;;;;;8.97;5.87;;;;;;;;;;5029869;28;20997;-66
2021/12/01 12:53:37;;;;;;;9.57;6.20;;;;;;;;;;5029677;28;20513;-67
2021/12/01 12:56:23;;;;;;;9.13;5.90;;;;;;;;;;5029416;28;20509;-67
2021/12/01 12:58:49;;;;;;;8.93;5.60;;;;;;;;;;5029153;28;20450;-68
2021/12/01 13:01:23;;;;;;;7.60;5.37;;;;;;;;;;5029658;28;20672;-69
2021/12/01 13:03:51;;;;;;;8.50;5.27;;;;;;;;;;5029437;28;20534;-67
2021/12/01 13:06:28;;;;;;;8.07;4.87;;;;;;;;;;5029724;28;20440;-70
2021/12/01 13:09:13;;;;;;;6.70;5.00;;;;;;;;;;5032920;28;20471;-69
2021/12/01 13:11:40;;;;;;;8.47;4.63;;;;;;;;;;5033505;28;20443;-66
2021/12/01 13:14:07;;;;;;;7.57;4.70;;;;;;;;;;5032987;28;20443;-65
2021/12/01 13:16:34;;;;;;;8.20;5.10;;;;;;;;;;5033544;28;20444;-66
2021/12/01 13:19:02;;;;;;;7.63;5.40;;;;;;;;;;5033357;28;20467;-66
2021/12/01 13:21:29;;;;;;;10.77;6.23;;;;;;;;;;5033638;28;20531;-66
2021/12/01 13:23:56;;;;;;;10.60;6.63;;;;;;;;;;5032924;28;20423;-67
2021/12/01 13:26:26;;;;;;;11.07;6.57;;;;;;;;;;5033324;28;20781;-69
2021/12/01 13:29:02;;;;;;;11.17;6.43;;;;;;;;;;5032607;28;21085;-66
2021/12/01 13:31:30;;;;;;;13.00;6.80;;;;;;;;;;5033123;28;20447;-64
2021/12/01 13:33:59;;;;;;;11.37;7.10;;;;;;;;;;5032863;28;20475;-68
2021/12/01 13:36:27;;;;;;;11.13;7.40;;;;;;;;;;5032850;28;20440;-71
2021/12/01 13:38:57;;;;;;;13.00;7.40;;;;;;;;;;5032311;28;20432;-68
2021/12/01 13:41:27;;;;;;;13.67;7.80;;;;;;;;;;5033028;28;20451;-66
2021/12/01 13:44:01;;;;;;;12.93;8.40;;;;;;;;;;5032375;28;20444;-69
2021/12/01 13:46:27;;;;;;;11.17;7.60;;;;;;;;;;5032510;28;20439;-63
2021/12/01 13:48:55;;;;;;;12.30;7.37;;;;;;;;;;5032943;28;20522;-69
2021/12/01 13:51:22;;;;;;;10.60;7.63;;;;;;;;;;5033114;28;20471;-66
2021/12/01 13:53:50;;;;;;;12.97;8.60;;;;;;;;;;5032290;28;20941;-72
2021/12/01 13:56:19;;;;;;;13.60;8.60;;;;;;;;;;5032478;28;20509;-68
2021/12/01 13:58:46;;;;;;;11.63;8.63;;;;;;;;;;5032105;28;20431;-67
2021/12/01 14:01:18;;;;;;;13.93;7.60;;;;;;;;;;5032922;28;20490;-66
2021/12/01 14:04:02;;;;;;;13.33;7.40;;;;;;;;;;5044140;28;20828;-66
2021/12/01 14:06:29;;;;;;;13.10;8.00;;;;;;;;;;5033357;28;20543;-66
2021/12/01 14:09:12;;;;;;;11.70;7.80;;;;;;;;;;5036788;28;20521;-64
2021/12/01 14:11:47;;;;;;;10.60;6.70;;;;;;;;;;5032147;28;20494;-68
2021/12/01 14:14:19;;;;;;;11.53;6.40;;;;;;;;;;5032241;28;20503;-70
2021/12/01 14:16:50;;;;;;;12.53;7.57;;;;;;;;;;5031203;28;20439;-69
2021/12/01 14:19:18;;;;;;;13.67;7.60;;;;;;;;;;5032231;28;20539;-70
2021/12/01 14:21:47;;;;;;;10.20;6.87;;;;;;;;;;5032001;28;20439;-65
2021/12/01 14:24:13;;;;;;;10.00;7.17;;;;;;;;;;5031316;28;20478;-63
2021/12/01 14:26:43;;;;;;;13.97;7.50;;;;;;;;;;5031263;28;20447;-66
2021/12/01 14:29:11;;;;;;;13.53;6.90;;;;;;;;;;5031349;28;20444;-72
2021/12/01 14:31:39;;;;;;;14.47;8.27;;;;;;;;;;5032254;28;20440;-70
2021/12/01 14:34:09;;;;;;;21.77;11.43;;;;;;;;;;5044095;28;20465;-68
2021/12/01 14:36:36;;;;;;;23.23;13.47;;;;;;;;;;5031434;28;20836;-69
2021/12/01 14:39:05;;;;;;;25.07;13.30;;;;;;;;;;5037476;28;20874;-65
2021/12/01 14:41:34;;;;;;;25.20;14.03;;;;;;;;;;5037615;28;20487;-69